createdAt,value
2023-02-01T00:04:09.519Z,25.10
2023-02-01T00:06:40.533Z,20.40
2023-02-01T00:09:11.741Z,27.05
2023-02-01T00:14:14.540Z,19.38
2023-02-01T00:16:45.215Z,18.58
2023-02-01T00:19:19.572Z,22.70
2023-02-01T00:21:50.518Z,19.95
2023-02-01T00:24:21.665Z,18.00
2023-02-01T00:29:24.055Z,22.15
2023-02-01T00:31:56.601Z,21.83
2023-02-01T00:34:30.168Z,18.75
2023-02-01T00:37:01.525Z,24.35
2023-02-01T00:39:35.513Z,29.33
2023-02-01T00:42:06.519Z,30.13
2023-02-01T00:44:37.758Z,31.35
2023-02-01T00:47:08.743Z,26.42
2023-02-01T00:49:42.541Z,31.40
2023-02-01T00:52:13.298Z,31.48
2023-02-01T00:54:44.825Z,37.00
2023-02-01T00:57:15.557Z,69.53
2023-02-01T00:59:47.587Z,31.77
2023-02-01T01:02:18.431Z,28.58
2023-02-01T01:04:52.219Z,25.42
2023-02-01T01:07:23.009Z,30.73
2023-02-01T01:09:54.890Z,24.27
2023-02-01T01:12:25.648Z,25.30
2023-02-01T01:14:57.033Z,23.92
2023-02-01T01:17:27.803Z,26.83
2023-02-01T01:20:01.651Z,27.58
2023-02-01T01:22:32.516Z,25.17
2023-02-01T01:25:03.626Z,35.88
2023-02-01T01:27:34.373Z,29.50
2023-02-01T01:30:05.611Z,24.80
2023-02-01T01:35:10.995Z,22.08
2023-02-01T01:37:41.979Z,20.77
2023-02-01T01:40:16.233Z,34.95
2023-02-01T01:42:49.824Z,23.10
2023-02-01T01:45:28.675Z,25.67
2023-02-01T01:48:02.515Z,23.92
2023-02-01T01:50:41.093Z,19.73
2023-02-01T01:53:15.748Z,25.42
2023-02-01T01:55:49.770Z,18.55
2023-02-01T01:58:24.087Z,16.15
2023-02-01T02:00:56.073Z,18.25
2023-02-01T02:03:30.660Z,17.08
2023-02-01T02:06:06.789Z,18.73
2023-02-01T02:08:37.729Z,20.90
2023-02-01T02:11:13.933Z,19.98
2023-02-01T02:13:47.918Z,23.40
2023-02-01T02:16:40.727Z,22.58
2023-02-01T02:19:36.350Z,17.48
2023-02-01T02:22:34.791Z,14.65
2023-02-01T02:25:40.707Z,14.18
2023-02-01T02:28:36.900Z,9.23
2023-02-01T02:31:31.301Z,15.40
2023-02-01T02:34:17.085Z,12.90
2023-02-01T02:36:59.972Z,17.80
2023-02-01T02:39:45.339Z,12.52
2023-02-01T02:42:32.752Z,17.90
2023-02-01T02:45:23.501Z,18.10
2023-02-01T02:47:59.510Z,16.92
2023-02-01T02:50:51.847Z,16.38
2023-02-01T02:53:41.199Z,16.13
2023-02-01T02:56:26.237Z,14.85
2023-02-01T02:59:10.640Z,14.50
2023-02-01T03:01:55.105Z,15.48
2023-02-01T03:04:26.783Z,12.43
2023-02-01T03:07:00.952Z,7.22
2023-02-01T03:09:39.208Z,9.82
2023-02-01T03:12:27.463Z,9.30
2023-02-01T03:15:05.007Z,9.43
2023-02-01T03:17:43.748Z,7.10
2023-02-01T03:20:17.465Z,14.10
2023-02-01T03:22:54.443Z,15.13
2023-02-01T03:25:28.880Z,11.23
2023-02-01T03:28:04.824Z,10.35
2023-02-01T03:30:41.630Z,6.75
2023-02-01T03:33:24.892Z,8.32
2023-02-01T03:36:05.308Z,8.88
2023-02-01T03:38:44.673Z,6.60
2023-02-01T03:41:23.091Z,11.35
2023-02-01T03:43:59.137Z,7.53
2023-02-01T03:46:36.659Z,11.30
2023-02-01T03:49:12.754Z,6.10
2023-02-01T03:51:45.359Z,8.48
2023-02-01T03:54:20.545Z,11.88
2023-02-01T03:56:52.892Z,10.27
2023-02-01T03:59:25.348Z,7.80
2023-02-01T04:01:56.275Z,19.15
2023-02-01T04:04:27.484Z,7.47
2023-02-01T04:07:00.116Z,7.82
2023-02-01T04:09:34.157Z,9.98
2023-02-01T04:12:05.023Z,11.95
2023-02-01T04:14:36.228Z,13.63
2023-02-01T04:19:38.104Z,11.02
2023-02-01T04:22:09.052Z,14.63
2023-02-01T04:24:42.833Z,15.80
2023-02-01T04:27:13.671Z,14.93
2023-02-01T04:29:46.364Z,13.00
2023-02-01T04:32:17.264Z,9.95
2023-02-01T04:34:48.552Z,12.82
2023-02-01T04:42:24.047Z,14.25
2023-02-01T04:44:55.238Z,15.93
2023-02-01T04:49:57.490Z,18.55
2023-02-01T04:52:28.661Z,16.70
2023-02-01T04:55:04.156Z,14.95
2023-02-01T04:57:34.930Z,11.38
2023-02-01T05:00:07.563Z,12.48
2023-02-01T05:02:38.994Z,23.98
2023-02-01T05:05:11.104Z,16.58
2023-02-01T05:07:41.943Z,22.65
2023-02-01T05:10:15.999Z,14.02
2023-02-01T05:13:00.257Z,19.55
2023-02-01T05:15:31.367Z,20.05
2023-02-01T05:20:33.020Z,20.60
2023-02-01T05:25:38.495Z,22.88
2023-02-01T05:28:09.330Z,24.40
2023-02-01T05:30:42.250Z,25.67
2023-02-01T05:33:13.307Z,25.27
2023-02-01T05:35:44.807Z,23.80
2023-02-01T05:38:15.592Z,24.27
2023-02-01T05:40:50.805Z,19.85
2023-02-01T05:43:21.595Z,24.55
2023-02-01T05:45:52.910Z,29.50
2023-02-01T05:48:23.827Z,29.08
2023-02-01T05:50:55.093Z,47.38
2023-02-01T05:55:59.767Z,42.25
2023-02-01T06:01:02.894Z,24.17
2023-02-01T06:03:33.772Z,31.63
2023-02-01T06:06:05.350Z,32.63
2023-02-01T06:08:36.767Z,27.30
2023-02-01T06:11:15.283Z,28.25
2023-02-01T06:13:51.088Z,39.42
2023-02-01T06:16:22.366Z,43.58
2023-02-01T06:21:27.425Z,25.15
2023-02-01T06:23:59.499Z,31.17
2023-02-01T06:26:33.548Z,34.20
2023-02-01T06:29:04.348Z,29.15
2023-02-01T06:31:36.370Z,30.60
2023-02-01T06:34:07.363Z,31.80
2023-02-01T06:36:38.459Z,31.00
2023-02-01T06:39:09.322Z,37.80
2023-02-01T06:41:43.957Z,26.65
2023-02-01T06:44:14.739Z,31.17
2023-02-01T06:46:46.140Z,35.85
2023-02-01T06:49:17.267Z,29.25
2023-02-01T06:51:48.718Z,24.58
2023-02-01T06:54:20.394Z,25.90
2023-02-01T06:56:54.154Z,31.05
2023-02-01T06:59:26.033Z,37.08
2023-02-01T07:01:57.221Z,30.08
2023-02-01T07:09:30.744Z,24.48
2023-02-01T07:12:04.710Z,29.35
2023-02-01T07:14:35.593Z,33.50
2023-02-01T07:17:06.982Z,35.15
2023-02-01T07:19:37.992Z,30.25
2023-02-01T07:22:09.112Z,28.67
2023-02-01T07:24:39.967Z,29.45
2023-02-01T07:27:13.932Z,33.47
2023-02-01T07:29:45.470Z,41.03
2023-02-01T07:32:19.398Z,43.38
2023-02-01T07:34:50.279Z,37.45
2023-02-01T07:37:21.421Z,33.28
